Pagrindinis puslapis
METAR-TAF:

METAR-TAF

Oro uostai :

Braunšveigas, Vokietija

platuma: 52-18N, ilguma: 010-27E, Aukštis: 81 m

Dabartinis oras

Ataskaita buvo paskelbta 9 valandos ir 58 minutes, ne 17:50 UTC
Vėjas 19 kt iš Pietvakarių su gūsio iki 29 kt, svyruoja nuo Pietų ir Vakarų/Pietvakarių
Temperatūra 16°C
Drėgmė 45%
Slėgis 999 hPa
Matomumas 10 km arba daugiau
nėra debesų žemiau 1500 m ir nėra kamuolinių lietaus debesų

METAR: EDVE 161750Z 22019G29KT 170V250 CAVOK 16/04 Q0999

Laikas: 04:48 (03:48 UTC)

Prognozė

Ataskaita buvo paskelbta 10 valandos ir 48 minutes, ne 17:00 UTC
Prognozė galioja nuo 16 metu 18 UTC su 16 metu 21 UTC
Vėjas 20 kt iš Pietvakarių su gūsio iki 35 kt
Matomumas 10 km arba daugiau
Išsisklaidę debesys ne aukštis 3000 ft
Tikimybė 30% :
Laikinai
nuo 16 metu 19 UTC su 16 metu 21 UTC
Vėjas 30 kt iš Pietvakarių su gūsio iki 50 kt

TAF: EDVE 161700Z 1618/1621 23020G35KT 9999 SCT030 PROB30 TEMPO 1619/1621 23030G50KT

Orai ataskaitas ir orų prognozės (METAR, TAF).

turimą stotys yra geltonos ir raudonos taškus žemėlapyje.

Perkelti pele per norėdami pamatyti stoties vardą.

Tada spustelėkite, norėdami matyti oro stebėjimo ir prognozės.

Norėdami pakeisti žemėlapį: spustelėkite ant žalios mygtukų su juodo kryžiaus žemyn,; žalią mygtuką su brūkšneliu, jei norite nutolinti; arba žalių rodyklių gretimoms žemėlapius.


METAR-TAF: